EDT,Max TemperatureF,Mean TemperatureF,Min TemperatureF,Max Dew PointF,MeanDew PointF,Min DewpointF,Max Humidity, Mean Humidity, Min Humidity, Max Sea Level PressureIn, Mean Sea Level PressureIn, Min Sea Level PressureIn, Max VisibilityMiles, Mean VisibilityMiles, Min VisibilityMiles, Max Wind SpeedMPH, Mean Wind SpeedMPH, Max Gust SpeedMPH,PrecipitationIn, CloudCover, Events, WindDirDegrees
2012-9-1,90,82,73,72,71,67,96,74,46,30.12,30.06,30.03,10,9,4,7,2,,0.00,0,,271
2012-9-2,90,79,69,74,71,70,100,89,53,30.05,30.02,29.98,10,6,0,16,3,21,2.76,4,Fog-Rain-Thunderstorm,159
2012-9-3,86,78,70,74,71,70,100,89,59,30.08,30.04,30.00,10,6,1,6,1,,0.01,6,,157
2012-9-4,89,80,71,73,72,69,100,79,57,30.03,29.98,29.91,10,8,2,13,4,21,0.00,4,Rain,189
2012-9-5,84,80,75,75,72,70,88,76,66,29.91,29.87,29.83,10,10,8,12,8,20,0.02,4,Rain-Thunderstorm,214
2012-9-6,80,72,64,73,68,64,100,88,74,29.98,29.93,29.85,10,6,1,12,3,,0.30,3,Rain,211
2012-9-7,88,75,62,70,64,61,100,92,46,29.99,29.94,29.87,10,4,0,5,0,,0.00,2,Fog,138
2012-9-8,88,76,64,72,68,62,100,86,55,29.87,29.79,29.65,10,6,1,22,3,41,0.32,3,Rain-Thunderstorm,210
2012-9-9,79,68,57,62,56,51,97,70,40,29.99,29.91,29.85,10,10,9,8,2,,0.00,2,,316
2012-9-10,75,64,54,53,50,46,93,64,36,30.21,30.09,29.99,10,10,10,10,3,16,0.00,0,,329
2012-9-11,78,63,48,57,51,47,97,71,36,30.34,30.28,30.21,10,10,8,5,0,,0.00,0,,10
2012-9-12,79,64,50,59,52,48,97,71,37,30.40,30.35,30.32,10,10,8,6,1,,0.00,0,,178
2012-9-13,81,66,50,61,55,49,97,74,34,30.40,30.34,30.29,10,9,5,5,0,,0.00,0,,10
2012-9-14,84,70,57,65,60,55,97,78,46,30.30,30.22,30.14,10,9,3,8,1,,0.00,1,,240
2012-9-15,77,66,54,61,53,45,100,69,34,30.24,30.17,30.12,10,9,2,9,2,18,0.00,0,,340
2012-9-16,73,62,52,57,53,49,96,78,45,30.20,30.16,30.12,10,10,8,6,1,,0.00,2,,197
2012-9-17,75,65,55,68,62,53,100,83,68,30.14,30.08,29.99,10,9,4,7,2,,0.05,7,Rain,158
2012-9-18,78,72,66,72,68,64,100,91,78,29.95,29.78,29.71,10,7,1,20,10,36,1.04,7,Rain,185
2012-9-19,73,62,51,65,53,47,96,72,41,30.18,30.05,29.85,10,10,10,9,4,,0.01,4,,357
2012-9-20,75,62,48,58,52,47,97,76,46,30.20,30.14,30.08,10,9,5,6,1,,0.00,1,,115
2012-9-21,81,66,53,63,58,52,100,76,50,30.10,30.05,29.99,10,9,4,9,2,,0.01,0,,158
2012-9-22,84,74,63,65,62,59,90,69,46,29.99,29.92,29.84,10,10,9,15,7,21,0.00,1,,197
2012-9-23,71,60,50,57,46,41,86,57,36,30.17,30.10,29.96,10,10,10,9,4,,0.00,2,,352
2012-9-24,71,58,46,49,44,37,93,68,30,30.26,30.20,30.17,10,10,9,13,1,17,0.00,1,,283
2012-9-25,75,60,46,55,49,44,93,67,40,30.25,30.20,30.11,10,10,10,13,3,18,0.00,0,,186
2012-9-26,84,72,60,64,59,53,78,62,46,30.18,30.15,30.11,10,10,10,13,7,21,0.00,0,,191
2012-9-27,84,72,61,67,63,60,97,74,51,30.19,30.13,30.09,10,9,1,8,4,,0.00,0,,149
2012-9-28,84,70,60,67,62,57,100,84,50,30.11,30.04,29.98,10,7,2,8,1,,0.03,4,Rain-Thunderstorm,295
2012-9-29,72,64,59,57,53,49,87,74,49,30.05,29.99,29.93,10,10,10,6,0,,0.00,7,,355
2012-9-30,75,64,52,54,49,45,97,64,34,29.95,29.90,29.84,10,10,8,9,3,,0.00,2,,262